createdAt,value
2023-05-13T00:00:42.211Z,3.75
2023-05-13T00:03:48.339Z,3.52
2023-05-13T00:06:53.742Z,3.70
2023-05-13T00:09:59.898Z,4.30
2023-05-13T00:12:58.828Z,4.10
2023-05-13T00:16:04.170Z,5.55
2023-05-13T00:19:03.173Z,4.47
2023-05-13T00:22:09.346Z,4.80
2023-05-13T00:25:15.256Z,4.75
2023-05-13T00:28:22.113Z,4.62
2023-05-13T00:31:28.044Z,5.15
2023-05-13T00:34:32.998Z,4.72
2023-05-13T00:37:39.610Z,5.10
2023-05-13T00:40:46.142Z,5.20
2023-05-13T00:43:52.164Z,4.65
2023-05-13T00:46:58.090Z,4.97
2023-05-13T00:50:04.606Z,5.40
2023-05-13T00:53:09.543Z,5.28
2023-05-13T00:56:14.543Z,5.08
2023-05-13T00:59:20.105Z,5.37
2023-05-13T01:02:52.229Z,5.42
2023-05-13T01:06:18.544Z,5.47
2023-05-13T01:09:31.489Z,5.33
2023-05-13T01:12:52.052Z,4.45
2023-05-13T01:18:43.955Z,4.85
2023-05-13T01:21:37.416Z,4.97
2023-05-13T01:24:30.366Z,4.35
2023-05-13T01:27:35.271Z,4.97
2023-05-13T01:30:41.702Z,4.55
2023-05-13T01:33:47.579Z,3.92
2023-05-13T01:36:53.799Z,4.05
2023-05-13T01:40:00.028Z,4.33
2023-05-13T01:43:05.572Z,3.98
2023-05-13T01:46:06.323Z,4.00
2023-05-13T01:48:52.231Z,3.85
2023-05-13T01:51:45.191Z,3.47
2023-05-13T01:54:37.558Z,4.65
2023-05-13T01:57:44.770Z,4.53
2023-05-13T02:00:52.106Z,3.85
2023-05-13T02:03:57.973Z,3.52
2023-05-13T02:07:04.067Z,4.15
2023-05-13T02:10:08.878Z,3.85
2023-05-13T02:13:15.062Z,3.35
2023-05-13T02:16:21.898Z,4.35
2023-05-13T02:19:27.431Z,4.22
2023-05-13T02:22:32.690Z,3.95
2023-05-13T02:25:39.183Z,4.12
2023-05-13T02:28:45.274Z,4.55
2023-05-13T02:31:44.713Z,4.05
2023-05-13T02:34:51.585Z,4.25
2023-05-13T02:37:58.320Z,3.95
2023-05-13T02:41:03.971Z,4.05
2023-05-13T02:44:08.818Z,4.08
2023-05-13T02:47:14.937Z,3.80
2023-05-13T02:50:22.373Z,3.80
2023-05-13T02:53:28.270Z,4.08
2023-05-13T02:56:35.469Z,3.60
2023-05-13T02:59:40.745Z,4.35
2023-05-13T03:02:46.665Z,4.60
2023-05-13T03:05:52.396Z,3.67
2023-05-13T03:08:58.302Z,3.83
2023-05-13T03:12:05.566Z,3.95
2023-05-13T03:15:10.630Z,3.95
2023-05-13T03:18:16.633Z,3.70
2023-05-13T03:21:22.341Z,3.33
2023-05-13T03:24:27.882Z,2.90
2023-05-13T03:27:34.516Z,4.22
2023-05-13T03:30:39.490Z,3.67
2023-05-13T03:33:48.327Z,4.05
2023-05-13T03:36:54.623Z,4.03
2023-05-13T03:40:00.500Z,3.90
2023-05-13T03:43:07.231Z,4.17
2023-05-13T03:46:14.149Z,3.83
2023-05-13T03:49:20.629Z,3.20
2023-05-13T03:52:28.655Z,3.00
2023-05-13T03:55:34.423Z,3.47
2023-05-13T03:58:41.247Z,3.62
2023-05-13T04:01:46.505Z,3.20
2023-05-13T04:04:53.587Z,3.27
2023-05-13T04:07:59.404Z,3.30
2023-05-13T04:11:04.799Z,3.45
2023-05-13T04:14:10.791Z,3.42
2023-05-13T04:17:15.566Z,3.35
2023-05-13T04:20:23.722Z,3.10
2023-05-13T04:23:29.161Z,2.90
2023-05-13T04:26:28.132Z,3.20
2023-05-13T04:29:33.823Z,3.85
2023-05-13T04:32:38.813Z,3.25
2023-05-13T04:35:45.406Z,2.98
2023-05-13T04:38:50.195Z,3.47
2023-05-13T04:41:57.190Z,3.12
2023-05-13T04:45:04.496Z,3.65
2023-05-13T04:48:10.362Z,4.40
2023-05-13T04:51:16.790Z,3.95
2023-05-13T04:54:23.557Z,3.00
2023-05-13T04:57:27.997Z,3.92
2023-05-13T05:00:33.471Z,3.75
2023-05-13T05:03:38.960Z,3.60
2023-05-13T05:06:43.821Z,3.58
2023-05-13T05:09:50.509Z,4.20
2023-05-13T05:12:57.186Z,2.98
2023-05-13T05:16:03.048Z,3.30
2023-05-13T05:19:08.317Z,4.03
2023-05-13T05:22:06.867Z,3.35
2023-05-13T05:24:52.010Z,4.25
2023-05-13T05:27:44.261Z,3.95
2023-05-13T05:30:37.415Z,3.83
2023-05-13T05:33:45.564Z,3.70
2023-05-13T05:36:50.894Z,4.10
2023-05-13T05:39:56.845Z,4.00
2023-05-13T05:43:04.098Z,3.58
2023-05-13T05:46:10.134Z,3.20
2023-05-13T05:49:15.663Z,3.75
2023-05-13T05:52:23.464Z,4.28
2023-05-13T05:55:29.168Z,4.53
2023-05-13T05:58:35.294Z,4.58
2023-05-13T06:01:43.309Z,5.05
2023-05-13T06:04:48.585Z,4.70
2023-05-13T06:07:55.753Z,4.53
2023-05-13T06:11:03.488Z,4.70
2023-05-13T06:14:09.097Z,4.40
2023-05-13T06:17:08.914Z,4.47
2023-05-13T06:20:08.482Z,4.17
2023-05-13T06:23:14.216Z,4.00
2023-05-13T06:26:20.199Z,4.05
2023-05-13T06:29:25.633Z,3.55
2023-05-13T06:32:30.465Z,3.17
2023-05-13T06:35:36.391Z,3.70
2023-05-13T06:38:41.525Z,3.60
2023-05-13T06:41:46.868Z,3.20
2023-05-13T06:44:55.137Z,3.67
2023-05-13T06:48:02.576Z,2.83
2023-05-13T06:51:09.411Z,3.00
2023-05-13T06:54:14.498Z,3.00
2023-05-13T06:57:21.905Z,2.98
2023-05-13T07:00:29.924Z,2.52
2023-05-13T07:03:34.911Z,2.37
2023-05-13T07:06:39.675Z,2.95
2023-05-13T07:09:45.919Z,2.35
2023-05-13T07:12:51.578Z,2.65
2023-05-13T07:15:57.745Z,2.08
2023-05-13T07:19:02.900Z,2.30
2023-05-13T07:22:08.312Z,1.92
2023-05-13T07:25:14.029Z,2.20
2023-05-13T07:28:19.776Z,2.58
2023-05-13T07:31:25.504Z,1.70
2023-05-13T07:34:30.673Z,2.00
2023-05-13T07:37:37.021Z,2.17
2023-05-13T07:40:43.413Z,1.92
2023-05-13T07:43:48.913Z,2.00
2023-05-13T07:46:55.462Z,2.37
2023-05-13T07:49:54.469Z,1.57
2023-05-13T07:53:01.015Z,1.57
2023-05-13T07:56:06.683Z,2.08
2023-05-13T07:59:13.264Z,2.27
2023-05-13T08:02:18.588Z,1.65
2023-05-13T08:05:25.488Z,2.45
2023-05-13T08:08:30.501Z,1.57
2023-05-13T08:11:36.829Z,1.65
2023-05-13T08:14:42.447Z,1.65
2023-05-13T08:17:47.834Z,2.05
2023-05-13T08:20:53.611Z,1.80
2023-05-13T08:24:00.406Z,2.05
2023-05-13T08:27:05.116Z,1.90
2023-05-13T08:30:11.315Z,2.08
2023-05-13T08:33:18.003Z,1.60
2023-05-13T08:36:24.569Z,1.65
2023-05-13T08:39:29.733Z,1.90
2023-05-13T08:42:34.978Z,2.20
2023-05-13T08:45:40.526Z,1.82
2023-05-13T08:48:46.278Z,2.10
2023-05-13T08:51:51.158Z,2.20
2023-05-13T08:54:56.683Z,2.33
2023-05-13T08:57:56.037Z,2.08
2023-05-13T09:01:03.262Z,2.40
2023-05-13T09:04:18.522Z,1.92
2023-05-13T09:07:24.419Z,2.50
2023-05-13T09:10:30.373Z,2.58
2023-05-13T09:13:36.109Z,2.62
2023-05-13T09:16:43.024Z,2.85
2023-05-13T09:19:49.541Z,2.42
2023-05-13T09:23:05.804Z,2.55
2023-05-13T09:26:11.300Z,2.50
2023-05-13T09:29:39.757Z,3.42
2023-05-13T09:32:47.322Z,2.37
2023-05-13T09:35:50.822Z,2.85
2023-05-13T09:38:45.774Z,3.00
2023-05-13T09:41:52.686Z,3.22
2023-05-13T09:45:00.276Z,3.20
2023-05-13T09:48:05.992Z,3.40
2023-05-13T09:51:13.536Z,3.00
2023-05-13T09:54:21.763Z,3.47
2023-05-13T09:57:28.753Z,2.95
2023-05-13T10:00:35.956Z,3.40
2023-05-13T10:03:43.016Z,3.45
2023-05-13T10:06:48.726Z,3.30
2023-05-13T10:09:54.464Z,3.25
2023-05-13T10:13:00.634Z,3.20
2023-05-13T10:16:14.515Z,3.60
2023-05-13T10:19:20.728Z,3.80
2023-05-13T10:22:26.110Z,3.47
2023-05-13T10:25:39.048Z,3.47
2023-05-13T10:28:44.470Z,3.27
2023-05-13T10:31:49.732Z,3.52
2023-05-13T10:34:56.042Z,3.08
2023-05-13T10:38:29.804Z,3.80
2023-05-13T10:42:00.739Z,3.20
2023-05-13T10:45:08.601Z,3.20
2023-05-13T10:48:22.092Z,3.67
2023-05-13T10:51:31.905Z,2.92
2023-05-13T10:54:38.548Z,2.67
2023-05-13T10:57:50.289Z,3.00
2023-05-13T11:00:59.730Z,3.08
2023-05-13T11:04:10.289Z,3.00
2023-05-13T11:07:18.296Z,3.25
2023-05-13T11:10:40.019Z,2.77
2023-05-13T11:13:52.094Z,2.85
2023-05-13T11:17:05.198Z,2.62
2023-05-13T11:20:10.575Z,3.35
2023-05-13T11:23:16.013Z,3.58
2023-05-13T11:26:28.724Z,2.70
2023-05-13T11:29:51.464Z,2.98
2023-05-13T11:33:14.452Z,2.50
2023-05-13T11:36:20.002Z,2.55
2023-05-13T11:39:33.699Z,2.75
2023-05-13T11:42:40.052Z,2.25
2023-05-13T11:45:47.834Z,2.67
2023-05-13T11:48:55.420Z,2.72
2023-05-13T11:52:00.809Z,2.55
2023-05-13T11:55:07.192Z,2.45
2023-05-13T11:58:13.156Z,2.17
2023-05-13T12:01:19.044Z,2.33
2023-05-13T12:04:25.389Z,2.05
2023-05-13T12:07:40.914Z,2.10
2023-05-13T12:10:46.790Z,2.70
2023-05-13T12:13:52.560Z,2.58
2023-05-13T12:16:59.192Z,2.37
2023-05-13T12:20:26.544Z,2.20
2023-05-13T12:23:31.932Z,2.27
2023-05-13T12:26:29.848Z,2.25
2023-05-13T12:29:35.309Z,2.42
2023-05-13T12:32:41.302Z,2.30
2023-05-13T12:35:48.012Z,2.35
2023-05-13T12:38:53.445Z,2.72
2023-05-13T12:42:06.842Z,2.20
2023-05-13T12:45:12.838Z,2.12
2023-05-13T12:48:18.738Z,2.05
2023-05-13T12:51:24.671Z,2.12
2023-05-13T12:54:30.190Z,2.02
2023-05-13T12:57:31.075Z,2.00
2023-05-13T13:00:36.516Z,2.20
2023-05-13T13:03:42.431Z,2.50
2023-05-13T13:06:47.931Z,2.30
2023-05-13T13:09:54.143Z,2.10
2023-05-13T13:13:00.764Z,2.52
2023-05-13T13:16:06.923Z,2.62
2023-05-13T13:19:11.865Z,2.52
2023-05-13T13:22:17.300Z,2.25
2023-05-13T13:25:24.356Z,2.58
2023-05-13T13:28:31.214Z,2.30
2023-05-13T13:31:39.013Z,2.47
2023-05-13T13:34:44.475Z,2.72
2023-05-13T13:37:49.900Z,2.42
2023-05-13T13:40:57.352Z,2.40
2023-05-13T13:44:03.782Z,2.42
2023-05-13T13:47:09.905Z,2.37
2023-05-13T13:50:15.730Z,2.40
2023-05-13T13:53:21.605Z,2.27
2023-05-13T13:56:27.803Z,2.12
2023-05-13T13:59:26.687Z,2.30
2023-05-13T14:02:34.078Z,2.20
2023-05-13T14:05:39.802Z,2.22
2023-05-13T14:08:45.544Z,2.60
2023-05-13T14:11:45.396Z,2.17
2023-05-13T14:14:50.978Z,2.27
2023-05-13T14:17:57.028Z,2.30
2023-05-13T14:21:03.277Z,2.08
2023-05-13T14:24:08.829Z,2.65
2023-05-13T14:27:15.737Z,2.75
2023-05-13T14:30:22.251Z,2.52
2023-05-13T14:33:28.554Z,2.47
2023-05-13T14:36:34.285Z,2.45
2023-05-13T14:39:39.160Z,2.95
2023-05-13T14:42:37.101Z,3.17
2023-05-13T14:45:42.867Z,2.92
2023-05-13T14:48:41.817Z,2.98
2023-05-13T14:51:47.626Z,2.55
2023-05-13T14:54:47.460Z,2.65
2023-05-13T14:57:53.980Z,3.08
2023-05-13T15:01:00.558Z,2.70
2023-05-13T15:04:08.569Z,2.90
2023-05-13T15:07:15.217Z,2.60
2023-05-13T15:10:22.195Z,3.30
2023-05-13T15:13:31.565Z,3.45
2023-05-13T15:16:36.756Z,3.05
2023-05-13T15:19:42.677Z,3.60
2023-05-13T15:22:48.555Z,4.15
2023-05-13T15:25:47.946Z,2.90
2023-05-13T15:28:40.848Z,3.45
2023-05-13T15:31:47.521Z,2.33
2023-05-13T15:34:54.286Z,2.70
2023-05-13T15:38:00.622Z,2.47
2023-05-13T15:41:05.505Z,2.58
2023-05-13T15:44:11.906Z,3.02
2023-05-13T15:47:18.288Z,2.95
2023-05-13T15:50:25.441Z,2.70
2023-05-13T15:53:30.881Z,3.40
2023-05-13T15:56:37.869Z,4.22
2023-05-13T15:59:42.797Z,2.70
2023-05-13T16:02:45.973Z,3.35
2023-05-13T16:05:31.363Z,3.30
2023-05-13T16:08:23.673Z,3.15
2023-05-13T16:11:09.657Z,4.22
2023-05-13T16:14:02.905Z,3.55
2023-05-13T16:20:13.685Z,3.35
2023-05-13T16:23:21.236Z,3.37
2023-05-13T16:26:28.370Z,4.10
2023-05-13T16:29:34.603Z,4.00
2023-05-13T16:32:41.699Z,3.70
2023-05-13T16:35:47.154Z,4.55
2023-05-13T16:38:54.812Z,4.03
2023-05-13T16:41:59.855Z,4.70
2023-05-13T16:45:06.095Z,4.55
2023-05-13T16:48:12.202Z,4.33
2023-05-13T16:51:18.720Z,5.08
2023-05-13T16:54:23.972Z,4.83
2023-05-13T16:57:30.499Z,4.15
2023-05-13T17:00:37.169Z,3.62
2023-05-13T17:03:43.617Z,3.37
2023-05-13T17:06:50.501Z,3.77
2023-05-13T17:09:56.450Z,3.58
2023-05-13T17:13:02.200Z,3.67
2023-05-13T17:16:08.719Z,3.95
2023-05-13T17:19:14.726Z,5.28
2023-05-13T17:22:19.796Z,5.50
2023-05-13T17:25:24.529Z,3.27
2023-05-13T17:28:29.990Z,3.12
2023-05-13T17:31:35.782Z,3.80
2023-05-13T17:34:41.014Z,3.30
2023-05-13T17:37:46.593Z,3.42
2023-05-13T17:40:52.920Z,3.90
2023-05-13T17:43:58.527Z,4.50
2023-05-13T17:47:04.637Z,5.03
2023-05-13T17:50:09.448Z,4.12
2023-05-13T17:53:15.167Z,5.10
2023-05-13T17:56:21.428Z,5.35
2023-05-13T17:59:27.228Z,4.58
2023-05-13T18:02:32.901Z,4.33
2023-05-13T18:05:39.829Z,5.35
2023-05-13T18:08:46.663Z,5.08
2023-05-13T18:11:51.999Z,17.12
2023-05-13T18:14:57.959Z,7.70
2023-05-13T18:18:04.408Z,6.70
2023-05-13T18:21:09.956Z,9.30
2023-05-13T18:24:15.545Z,9.45
2023-05-13T18:27:22.230Z,7.60
2023-05-13T18:30:31.030Z,7.12
2023-05-13T18:33:36.527Z,9.18
2023-05-13T18:36:42.944Z,8.30
2023-05-13T18:39:50.882Z,7.92
2023-05-13T18:42:49.417Z,6.55
2023-05-13T18:45:41.684Z,8.60
2023-05-13T18:48:47.679Z,8.13
2023-05-13T18:51:53.449Z,7.22
2023-05-13T18:54:59.316Z,12.00
2023-05-13T18:58:06.017Z,11.15
2023-05-13T19:01:13.376Z,9.95
2023-05-13T19:04:21.032Z,7.58
2023-05-13T19:07:27.622Z,8.50
2023-05-13T19:10:39.102Z,7.37
2023-05-13T19:16:48.439Z,8.00
2023-05-13T19:19:54.488Z,7.33
2023-05-13T19:23:00.272Z,6.42
2023-05-13T19:26:05.371Z,5.50
2023-05-13T19:29:11.568Z,7.20
2023-05-13T19:32:16.240Z,6.00
2023-05-13T19:35:23.585Z,5.45
2023-05-13T19:38:31.447Z,4.70
2023-05-13T19:41:37.248Z,5.60
2023-05-13T19:44:42.271Z,4.90
2023-05-13T19:47:48.959Z,4.45
2023-05-13T19:50:55.515Z,5.55
2023-05-13T19:54:01.325Z,4.95
2023-05-13T19:57:07.837Z,4.67
2023-05-13T20:00:13.274Z,4.40
2023-05-13T20:03:20.293Z,6.37
2023-05-13T20:06:26.651Z,6.80
2023-05-13T20:09:33.938Z,5.17
2023-05-13T20:12:39.815Z,4.90
2023-05-13T20:15:47.243Z,4.87
2023-05-13T20:18:53.222Z,6.85
2023-05-13T20:21:58.758Z,5.47
2023-05-13T20:25:08.183Z,4.97
2023-05-13T20:28:06.871Z,6.10
2023-05-13T20:30:53.604Z,5.83
2023-05-13T20:33:46.051Z,4.47
2023-05-13T20:36:51.830Z,4.72
2023-05-13T20:39:57.967Z,5.25
2023-05-13T20:43:02.747Z,4.67
2023-05-13T20:46:08.614Z,4.78
2023-05-13T20:49:14.629Z,4.95
2023-05-13T20:52:20.004Z,5.22
2023-05-13T20:55:27.694Z,4.75
2023-05-13T20:58:32.899Z,5.08
2023-05-13T21:01:40.561Z,5.08
2023-05-13T21:04:47.110Z,4.85
2023-05-13T21:07:52.707Z,4.17
2023-05-13T21:10:57.717Z,3.58
2023-05-13T21:14:03.489Z,5.08
2023-05-13T21:17:10.232Z,4.90
2023-05-13T21:20:15.923Z,3.85
2023-05-13T21:23:22.442Z,4.28
2023-05-13T21:26:29.322Z,4.50
2023-05-13T21:29:36.933Z,4.03
2023-05-13T21:32:41.904Z,3.72
2023-05-13T21:35:48.958Z,3.95
2023-05-13T21:38:55.663Z,3.45
2023-05-13T21:42:00.698Z,3.35
2023-05-13T21:45:06.201Z,3.75
2023-05-13T21:48:11.528Z,4.37
2023-05-13T21:51:17.160Z,3.85
2023-05-13T21:54:22.808Z,3.50
2023-05-13T21:57:29.198Z,3.77
2023-05-13T22:00:34.894Z,4.12
2023-05-13T22:03:40.021Z,3.83
2023-05-13T22:06:40.408Z,3.95
2023-05-13T22:09:32.679Z,3.47
2023-05-13T22:12:37.596Z,3.85
2023-05-13T22:15:43.627Z,4.70
2023-05-13T22:18:43.963Z,4.10
2023-05-13T22:21:49.593Z,3.87
2023-05-13T22:24:56.801Z,4.05
2023-05-13T22:28:02.455Z,3.55
2023-05-13T22:31:07.396Z,4.70
2023-05-13T22:34:13.115Z,4.05
2023-05-13T22:37:19.236Z,4.05
2023-05-13T22:40:25.680Z,4.15
2023-05-13T22:43:31.901Z,4.53
2023-05-13T22:46:37.669Z,4.10
2023-05-13T22:49:43.186Z,4.12
2023-05-13T22:52:49.379Z,4.20
2023-05-13T22:55:55.818Z,4.30
2023-05-13T22:59:01.257Z,4.72
2023-05-13T23:02:07.814Z,4.70
2023-05-13T23:05:14.573Z,4.45
2023-05-13T23:08:20.213Z,4.83
2023-05-13T23:11:26.092Z,5.28
2023-05-13T23:14:33.967Z,4.85
2023-05-13T23:17:39.611Z,5.35
2023-05-13T23:20:44.664Z,4.95
2023-05-13T23:23:51.402Z,5.00
2023-05-13T23:26:57.536Z,5.65
2023-05-13T23:30:02.624Z,5.53
2023-05-13T23:33:08.466Z,5.65
2023-05-13T23:36:13.949Z,6.08
2023-05-13T23:39:20.726Z,5.60
2023-05-13T23:42:25.762Z,5.97
2023-05-13T23:45:31.773Z,5.58
2023-05-13T23:48:38.283Z,5.10
2023-05-13T23:51:43.994Z,6.03
2023-05-13T23:54:50.342Z,5.83
2023-05-13T23:57:56.967Z,5.53
